createdAt,value
2018-07-03T00:00:40.832Z,1012.34
2018-07-03T00:01:40.790Z,1012.32
2018-07-03T00:02:40.746Z,1012.34
2018-07-03T00:03:40.704Z,1012.34
2018-07-03T00:04:40.661Z,1012.34
2018-07-03T00:05:40.619Z,1012.36
2018-07-03T00:06:40.575Z,1012.40
2018-07-03T00:07:40.533Z,1012.42
2018-07-03T00:08:40.493Z,1012.44
2018-07-03T00:09:40.448Z,1012.46
2018-07-03T00:10:40.404Z,1012.47
2018-07-03T00:11:40.364Z,1012.44
2018-07-03T00:12:40.328Z,1012.44
2018-07-03T00:13:40.276Z,1012.41
2018-07-03T00:14:40.232Z,1012.43
2018-07-03T00:15:40.190Z,1012.41
2018-07-03T00:16:40.148Z,1012.38
2018-07-03T00:17:40.106Z,1012.42
2018-07-03T00:18:40.063Z,1012.43
2018-07-03T00:19:40.019Z,1012.41
2018-07-03T00:20:39.977Z,1012.43
2018-07-03T00:21:40.035Z,1012.44
2018-07-03T00:22:39.890Z,1012.42
2018-07-03T00:23:39.848Z,1012.42
2018-07-03T00:24:39.805Z,1012.45
2018-07-03T00:25:39.762Z,1012.45
2018-07-03T00:26:39.718Z,1012.41
2018-07-03T00:27:39.676Z,1012.42
2018-07-03T00:28:39.634Z,1012.41
2018-07-03T00:29:39.591Z,1012.42
2018-07-03T00:30:39.547Z,1012.43
2018-07-03T00:31:39.504Z,1012.45
2018-07-03T00:32:39.462Z,1012.47
2018-07-03T00:33:39.420Z,1012.49
2018-07-03T00:34:39.376Z,1012.45
2018-07-03T00:35:39.334Z,1012.44
2018-07-03T00:36:39.290Z,1012.41
2018-07-03T00:37:39.248Z,1012.41
2018-07-03T00:38:39.204Z,1012.39
2018-07-03T00:39:39.162Z,1012.37
2018-07-03T00:40:39.119Z,1012.33
2018-07-03T00:41:39.076Z,1012.36
2018-07-03T00:42:39.033Z,1012.36
2018-07-03T00:43:38.991Z,1012.38
2018-07-03T00:44:38.948Z,1012.39
2018-07-03T00:45:38.905Z,1012.40
2018-07-03T00:47:38.819Z,1012.37
2018-07-03T00:48:38.776Z,1012.38
2018-07-03T00:49:38.733Z,1012.40
2018-07-03T00:50:38.689Z,1012.40
2018-07-03T00:51:38.647Z,1012.35
2018-07-03T00:52:38.605Z,1012.38
2018-07-03T00:53:38.562Z,1012.39
2018-07-03T00:54:38.518Z,1012.37
2018-07-03T00:55:38.476Z,1012.40
2018-07-03T00:56:38.433Z,1012.39
2018-07-03T00:57:38.391Z,1012.36
2018-07-03T00:58:38.347Z,1012.40
2018-07-03T00:59:38.408Z,1012.37
2018-07-03T01:00:38.261Z,1012.38
2018-07-03T01:01:38.219Z,1012.39
2018-07-03T01:02:38.176Z,1012.37
2018-07-03T01:03:38.132Z,1012.41
2018-07-03T01:04:38.093Z,1012.39
2018-07-03T01:05:38.047Z,1012.39
2018-07-03T01:06:38.004Z,1012.41
2018-07-03T01:07:37.961Z,1012.42
2018-07-03T01:08:37.921Z,1012.43
2018-07-03T01:09:37.878Z,1012.40
2018-07-03T01:10:37.831Z,1012.46
2018-07-03T01:11:37.795Z,1012.43
2018-07-03T01:12:37.746Z,1012.43
2018-07-03T01:13:37.703Z,1012.43
2018-07-03T01:14:37.660Z,1012.38
2018-07-03T01:15:37.617Z,1012.36
2018-07-03T01:16:37.576Z,1012.36
2018-07-03T01:17:37.532Z,1012.35
2018-07-03T01:18:37.488Z,1012.38
2018-07-03T01:19:37.445Z,1012.39
2018-07-03T01:20:37.403Z,1012.40
2018-07-03T01:21:37.360Z,1012.41
2018-07-03T01:22:37.316Z,1012.37
2018-07-03T01:23:37.276Z,1012.38
2018-07-03T01:24:37.231Z,1012.40
2018-07-03T01:25:37.188Z,1012.37
2018-07-03T01:26:37.145Z,1012.36
2018-07-03T01:27:37.102Z,1012.39
2018-07-03T01:28:37.059Z,1012.40
2018-07-03T01:29:37.017Z,1012.41
2018-07-03T01:30:36.972Z,1012.37
2018-07-03T01:31:36.929Z,1012.40
2018-07-03T01:32:36.887Z,1012.36
2018-07-03T01:33:36.844Z,1012.38
2018-07-03T01:34:36.800Z,1012.39
2018-07-03T01:35:36.758Z,1012.40
2018-07-03T01:36:36.715Z,1012.38
2018-07-03T01:37:36.673Z,1012.40
2018-07-03T01:38:36.629Z,1012.35
2018-07-03T01:39:36.586Z,1012.35
2018-07-03T01:40:36.543Z,1012.35
2018-07-03T01:41:36.502Z,1012.33
2018-07-03T01:42:36.456Z,1012.39
2018-07-03T01:43:36.414Z,1012.36
2018-07-03T01:44:36.371Z,1012.32
2018-07-03T01:45:36.328Z,1012.33
2018-07-03T01:46:36.286Z,1012.35
2018-07-03T01:47:36.242Z,1012.35
2018-07-03T01:48:36.199Z,1012.36
2018-07-03T01:49:36.157Z,1012.33
2018-07-03T01:50:36.113Z,1012.33
2018-07-03T01:51:36.071Z,1012.33
2018-07-03T01:52:36.027Z,1012.35
2018-07-03T01:53:35.984Z,1012.34
2018-07-03T01:54:35.941Z,1012.31
2018-07-03T01:55:35.901Z,1012.35
2018-07-03T01:56:35.855Z,1012.35
2018-07-03T01:57:35.812Z,1012.38
2018-07-03T01:58:35.769Z,1012.41
2018-07-03T01:59:35.725Z,1012.40
2018-07-03T02:00:35.683Z,1012.41
2018-07-03T02:01:35.642Z,1012.40
2018-07-03T02:02:35.596Z,1012.39
2018-07-03T02:03:35.558Z,1012.40
2018-07-03T02:04:35.510Z,1012.38
2018-07-03T02:05:35.468Z,1012.42
2018-07-03T02:06:35.424Z,1012.39
2018-07-03T02:07:35.381Z,1012.37
2018-07-03T02:08:35.338Z,1012.38
2018-07-03T02:09:35.296Z,1012.39
2018-07-03T02:10:35.252Z,1012.41
2018-07-03T02:11:35.209Z,1012.38
2018-07-03T02:12:35.166Z,1012.37
2018-07-03T02:13:35.123Z,1012.38
2018-07-03T02:14:35.084Z,1012.41
2018-07-03T02:15:35.039Z,1012.37
2018-07-03T02:16:34.994Z,1012.37
2018-07-03T02:17:34.951Z,1012.34
2018-07-03T02:18:34.907Z,1012.35
2018-07-03T02:19:34.864Z,1012.32
2018-07-03T02:20:34.822Z,1012.32
2018-07-03T02:21:34.779Z,1012.33
2018-07-03T02:22:34.735Z,1012.27
2018-07-03T02:23:34.692Z,1012.31
2018-07-03T02:24:34.653Z,1012.30
2018-07-03T02:25:34.607Z,1012.26
2018-07-03T02:26:34.563Z,1012.28
2018-07-03T02:27:34.520Z,1012.26
2018-07-03T02:28:34.478Z,1012.25
2018-07-03T02:29:34.434Z,1012.29
2018-07-03T02:30:34.390Z,1012.26
2018-07-03T02:31:34.348Z,1012.23
2018-07-03T02:32:34.308Z,1012.22
2018-07-03T02:33:34.262Z,1012.23
2018-07-03T02:34:34.219Z,1012.25
2018-07-03T02:35:34.175Z,1012.24
2018-07-03T02:36:34.132Z,1012.21
2018-07-03T02:37:34.096Z,1012.22
2018-07-03T02:38:34.046Z,1012.20
2018-07-03T02:39:34.003Z,1012.20
2018-07-03T02:40:33.960Z,1012.21
2018-07-03T02:41:33.917Z,1012.23
2018-07-03T02:42:33.874Z,1012.21
2018-07-03T02:43:33.856Z,1012.25
2018-07-03T02:44:33.794Z,1012.24
2018-07-03T02:45:33.745Z,1012.26
2018-07-03T02:46:33.705Z,1012.24
2018-07-03T02:47:33.658Z,1012.26
2018-07-03T02:48:33.618Z,1012.23
2018-07-03T02:49:33.572Z,1012.23
2018-07-03T02:50:33.529Z,1012.22
2018-07-03T02:51:33.487Z,1012.21
2018-07-03T02:52:33.446Z,1012.23
2018-07-03T02:53:33.404Z,1012.24
2018-07-03T02:54:33.356Z,1012.26
2018-07-03T02:55:33.320Z,1012.24
2018-07-03T02:56:33.270Z,1012.24
2018-07-03T02:57:33.233Z,1012.25
2018-07-03T02:58:33.184Z,1012.22
2018-07-03T02:59:33.145Z,1012.24
2018-07-03T03:00:33.098Z,1012.22
2018-07-03T03:01:33.071Z,1012.22
2018-07-03T03:02:33.012Z,1012.23
2018-07-03T03:03:32.971Z,1012.19
2018-07-03T03:04:32.926Z,1012.20
2018-07-03T03:05:32.882Z,1012.19
2018-07-03T03:06:32.839Z,1012.20
2018-07-03T03:07:32.796Z,1012.22
2018-07-03T03:08:32.757Z,1012.21
2018-07-03T03:09:32.710Z,1012.22
2018-07-03T03:10:32.668Z,1012.20
2018-07-03T03:11:32.623Z,1012.21
2018-07-03T03:12:32.581Z,1012.22
2018-07-03T03:13:32.542Z,1012.21
2018-07-03T03:14:32.495Z,1012.22
2018-07-03T03:15:32.452Z,1012.21
2018-07-03T03:16:32.408Z,1012.23
2018-07-03T03:17:32.365Z,1012.21
2018-07-03T03:18:32.321Z,1012.20
2018-07-03T03:19:32.278Z,1012.18
2018-07-03T03:20:32.239Z,1012.20
2018-07-03T03:21:32.193Z,1012.18
2018-07-03T03:22:32.200Z,1012.20
2018-07-03T03:23:32.106Z,1012.15
2018-07-03T03:24:32.062Z,1012.16
2018-07-03T03:25:32.028Z,1012.19
2018-07-03T03:26:31.975Z,1012.21
2018-07-03T03:27:31.932Z,1012.22
2018-07-03T03:28:31.889Z,1012.19
2018-07-03T03:29:31.849Z,1012.19
2018-07-03T03:30:31.802Z,1012.19
2018-07-03T03:31:31.760Z,1012.19
2018-07-03T03:32:31.717Z,1012.16
2018-07-03T03:33:31.674Z,1012.19
2018-07-03T03:34:31.632Z,1012.15
2018-07-03T03:35:31.587Z,1012.16
2018-07-03T03:36:31.546Z,1012.20
2018-07-03T03:37:31.502Z,1012.20
2018-07-03T03:38:31.457Z,1012.23
2018-07-03T03:39:31.413Z,1012.19
2018-07-03T03:40:31.371Z,1012.19
2018-07-03T03:41:31.328Z,1012.17
2018-07-03T03:42:31.284Z,1012.17
2018-07-03T03:43:31.242Z,1012.17
2018-07-03T03:44:31.197Z,1012.15
2018-07-03T03:45:31.154Z,1012.14
2018-07-03T03:46:31.111Z,1012.17
2018-07-03T03:47:31.118Z,1012.18
2018-07-03T03:48:31.025Z,1012.19
2018-07-03T03:49:30.982Z,1012.20
2018-07-03T03:50:30.938Z,1012.18
2018-07-03T03:51:30.896Z,1012.19
2018-07-03T03:52:30.852Z,1012.20
2018-07-03T03:53:30.813Z,1012.21
2018-07-03T03:54:30.766Z,1012.18
2018-07-03T03:55:30.723Z,1012.20
2018-07-03T03:56:30.679Z,1012.17
2018-07-03T03:57:30.637Z,1012.21
2018-07-03T03:58:30.592Z,1012.17
2018-07-03T03:59:30.549Z,1012.21
2018-07-03T04:00:30.507Z,1012.20
2018-07-03T04:01:30.463Z,1012.22
2018-07-03T04:02:30.420Z,1012.19
2018-07-03T04:03:30.378Z,1012.19
2018-07-03T04:04:30.333Z,1012.16
2018-07-03T04:05:30.290Z,1012.19
2018-07-03T04:06:30.248Z,1012.16
2018-07-03T04:07:30.203Z,1012.20
2018-07-03T04:08:30.161Z,1012.18
2018-07-03T04:09:30.117Z,1012.22
2018-07-03T04:10:30.074Z,1012.20
2018-07-03T04:11:30.031Z,1012.24
2018-07-03T04:12:29.987Z,1012.24
2018-07-03T04:13:29.944Z,1012.24
2018-07-03T04:14:29.900Z,1012.26
2018-07-03T04:15:29.861Z,1012.25
2018-07-03T04:16:29.864Z,1012.26
2018-07-03T04:17:29.771Z,1012.26
2018-07-03T04:18:29.730Z,1012.27
2018-07-03T04:19:29.684Z,1012.25
2018-07-03T04:20:29.641Z,1012.26
2018-07-03T04:21:29.598Z,1012.25
2018-07-03T04:22:29.554Z,1012.23
2018-07-03T04:23:29.513Z,1012.25
2018-07-03T04:24:29.467Z,1012.27
2018-07-03T04:25:29.425Z,1012.27
2018-07-03T04:26:29.380Z,1012.26
2018-07-03T04:27:29.338Z,1012.32
2018-07-03T04:28:29.295Z,1012.35
2018-07-03T04:29:29.251Z,1012.30
2018-07-03T04:30:29.214Z,1012.33
2018-07-03T04:31:29.164Z,1012.33
2018-07-03T04:32:29.121Z,1012.31
2018-07-03T04:33:29.078Z,1012.29
2018-07-03T04:34:29.034Z,1012.30
2018-07-03T04:35:28.991Z,1012.28
2018-07-03T04:36:28.951Z,1012.29
2018-07-03T04:37:28.905Z,1012.27
2018-07-03T04:38:28.861Z,1012.27
2018-07-03T04:39:28.820Z,1012.30
2018-07-03T04:40:28.775Z,1012.30
2018-07-03T04:41:28.745Z,1012.30
2018-07-03T04:42:28.688Z,1012.33
2018-07-03T04:43:28.645Z,1012.36
2018-07-03T04:44:28.602Z,1012.33
2018-07-03T04:45:28.561Z,1012.38
2018-07-03T04:46:28.514Z,1012.32
2018-07-03T04:47:28.472Z,1012.34
2018-07-03T04:48:28.429Z,1012.32
2018-07-03T04:49:28.386Z,1012.31
2018-07-03T04:50:28.341Z,1012.34
2018-07-03T04:51:28.299Z,1012.33
2018-07-03T04:52:28.256Z,1012.31
2018-07-03T04:53:28.227Z,1012.35
2018-07-03T04:54:28.168Z,1012.34
2018-07-03T04:55:28.126Z,1012.34
2018-07-03T04:56:28.083Z,1012.32
2018-07-03T04:57:28.040Z,1012.32
2018-07-03T04:58:27.998Z,1012.34
2018-07-03T04:59:27.953Z,1012.33
2018-07-03T05:00:27.910Z,1012.34
2018-07-03T05:01:27.866Z,1012.36
2018-07-03T05:02:27.823Z,1012.41
2018-07-03T05:03:27.780Z,1012.38
2018-07-03T05:04:27.738Z,1012.41
2018-07-03T05:05:27.695Z,1012.40
2018-07-03T05:06:27.651Z,1012.40
2018-07-03T05:07:27.608Z,1012.37
2018-07-03T05:08:27.565Z,1012.34
2018-07-03T05:09:27.523Z,1012.40
2018-07-03T05:10:27.481Z,1012.39
2018-07-03T05:11:27.436Z,1012.39
2018-07-03T05:12:27.393Z,1012.40
2018-07-03T05:13:27.351Z,1012.39
2018-07-03T05:14:27.316Z,1012.41
2018-07-03T05:15:27.264Z,1012.40
2018-07-03T05:16:27.223Z,1012.42
2018-07-03T05:17:27.197Z,1012.41
2018-07-03T05:18:27.136Z,1012.43
2018-07-03T05:19:27.092Z,1012.46
2018-07-03T05:20:27.053Z,1012.44
2018-07-03T05:21:27.006Z,1012.46
2018-07-03T05:22:26.964Z,1012.45
2018-07-03T05:23:26.920Z,1012.48
2018-07-03T05:24:26.878Z,1012.48
2018-07-03T05:25:26.837Z,1012.46
2018-07-03T05:26:26.797Z,1012.42
2018-07-03T05:27:26.749Z,1012.46
2018-07-03T05:28:26.707Z,1012.42
2018-07-03T05:29:26.666Z,1012.40
2018-07-03T05:30:26.621Z,1012.41
2018-07-03T05:31:26.599Z,1012.42
2018-07-03T05:32:26.537Z,1012.40
2018-07-03T05:33:26.493Z,1012.42
2018-07-03T05:34:26.451Z,1012.43
2018-07-03T05:35:26.407Z,1012.47
2018-07-03T05:36:26.364Z,1012.45
2018-07-03T05:37:26.322Z,1012.48
2018-07-03T05:38:26.329Z,1012.51
2018-07-03T05:39:26.236Z,1012.50
2018-07-03T05:40:26.196Z,1012.48
2018-07-03T05:41:26.151Z,1012.52
2018-07-03T05:42:26.108Z,1012.50
2018-07-03T05:43:26.066Z,1012.51
2018-07-03T05:44:26.023Z,1012.51
2018-07-03T05:45:25.980Z,1012.48
2018-07-03T05:46:25.937Z,1012.47
2018-07-03T05:47:25.895Z,1012.50
2018-07-03T05:48:25.852Z,1012.49
2018-07-03T05:49:25.810Z,1012.51
2018-07-03T05:50:25.767Z,1012.47
2018-07-03T05:51:25.725Z,1012.48
2018-07-03T05:52:25.682Z,1012.46
2018-07-03T05:53:25.641Z,1012.47
2018-07-03T05:54:25.597Z,1012.50
2018-07-03T05:55:25.558Z,1012.50
2018-07-03T05:57:25.470Z,1012.51
2018-07-03T05:58:25.426Z,1012.51
2018-07-03T05:59:25.406Z,1012.51
2018-07-03T06:00:25.342Z,1012.52
2018-07-03T06:01:25.300Z,1012.53
2018-07-03T06:02:25.256Z,1012.49
2018-07-03T06:03:25.217Z,1012.56
2018-07-03T06:04:25.190Z,1012.52
2018-07-03T06:05:25.230Z,1012.56
2018-07-03T06:06:25.087Z,1012.58
2018-07-03T06:07:25.051Z,1012.59
2018-07-03T06:08:25.013Z,1012.68
2018-07-03T06:09:24.966Z,1012.67
2018-07-03T06:10:24.917Z,1012.69
2018-07-03T06:11:24.875Z,1012.68
2018-07-03T06:12:24.833Z,1012.65
2018-07-03T06:13:24.791Z,1012.62
2018-07-03T06:14:24.749Z,1012.60
2018-07-03T06:15:24.732Z,1012.64
2018-07-03T06:16:24.728Z,1012.63
2018-07-03T06:17:24.652Z,1012.61
2018-07-03T06:18:24.595Z,1012.66
2018-07-03T06:19:24.537Z,1012.62
2018-07-03T06:20:24.495Z,1012.65
2018-07-03T06:21:24.453Z,1012.65
2018-07-03T06:22:24.411Z,1012.64
2018-07-03T06:23:24.368Z,1012.63
2018-07-03T06:24:24.327Z,1012.67
2018-07-03T06:25:24.286Z,1012.67
2018-07-03T06:26:24.244Z,1012.69
2018-07-03T06:27:24.202Z,1012.67
2018-07-03T06:28:24.160Z,1012.66
2018-07-03T06:29:24.118Z,1012.68
2018-07-03T06:30:24.076Z,1012.64
2018-07-03T06:31:24.035Z,1012.66
2018-07-03T06:32:23.994Z,1012.67
2018-07-03T06:33:23.953Z,1012.69
2018-07-03T06:34:23.911Z,1012.69
2018-07-03T06:35:23.870Z,1012.68
2018-07-03T06:36:23.830Z,1012.70
2018-07-03T06:37:23.809Z,1012.69
2018-07-03T06:38:23.746Z,1012.71
2018-07-03T06:39:23.706Z,1012.72
2018-07-03T06:40:23.665Z,1012.70
2018-07-03T06:41:23.623Z,1012.71
2018-07-03T06:42:23.581Z,1012.74
2018-07-03T06:43:23.717Z,1012.71
2018-07-03T06:44:23.501Z,1012.73
2018-07-03T06:45:23.462Z,1012.77
2018-07-03T06:46:23.419Z,1012.71
2018-07-03T06:47:23.492Z,1012.74
2018-07-03T06:48:23.339Z,1012.73
2018-07-03T06:49:23.299Z,1012.73
2018-07-03T06:50:23.259Z,1012.74
2018-07-03T06:51:23.217Z,1012.70
2018-07-03T06:52:23.179Z,1012.71
2018-07-03T06:53:23.138Z,1012.68
2018-07-03T06:54:23.097Z,1012.70
2018-07-03T06:55:23.057Z,1012.72
2018-07-03T06:56:23.017Z,1012.71
2018-07-03T06:57:22.978Z,1012.67
2018-07-03T06:58:22.938Z,1012.69
2018-07-03T06:59:22.898Z,1012.72
2018-07-03T07:00:22.859Z,1012.73
2018-07-03T07:01:22.820Z,1012.75
2018-07-03T07:02:22.779Z,1012.76
2018-07-03T07:03:22.741Z,1012.72
2018-07-03T07:04:22.699Z,1012.77
2018-07-03T07:05:22.662Z,1012.78
2018-07-03T07:06:22.622Z,1012.79
2018-07-03T07:07:22.584Z,1012.80
2018-07-03T07:08:22.544Z,1012.81
2018-07-03T07:09:22.643Z,1012.78
2018-07-03T07:10:22.466Z,1012.85
2018-07-03T07:11:22.428Z,1012.82
2018-07-03T07:12:22.390Z,1012.86
2018-07-03T07:13:22.350Z,1012.86
2018-07-03T07:14:22.312Z,1012.87
2018-07-03T07:15:22.273Z,1012.86
2018-07-03T07:16:22.236Z,1013.01
2018-07-03T07:17:22.196Z,1013.13
2018-07-03T07:18:22.157Z,1013.26
2018-07-03T07:19:22.120Z,1013.26
2018-07-03T07:20:22.084Z,1013.25
2018-07-03T07:21:22.044Z,1013.27
2018-07-03T07:22:22.005Z,1013.31
2018-07-03T07:23:22.014Z,1013.36
2018-07-03T07:24:21.930Z,1013.33
2018-07-03T07:25:21.894Z,1013.39
2018-07-03T07:26:21.904Z,1013.42
2018-07-03T07:27:21.818Z,1013.43
2018-07-03T07:28:21.779Z,1013.46
2018-07-03T07:29:21.746Z,1013.53
2018-07-03T07:30:21.703Z,1013.57
2018-07-03T07:31:21.667Z,1013.62
2018-07-03T07:32:21.630Z,1013.57
2018-07-03T07:33:21.595Z,1013.62
2018-07-03T07:34:21.555Z,1013.69
2018-07-03T07:35:21.518Z,1013.74
2018-07-03T07:36:21.480Z,1013.69
2018-07-03T07:37:21.445Z,1013.77
2018-07-03T07:38:21.411Z,1013.77
2018-07-03T07:39:21.373Z,1013.89
2018-07-03T07:40:21.345Z,1013.92
2018-07-03T07:41:21.298Z,1013.95
2018-07-03T07:42:21.261Z,1013.99
2018-07-03T07:43:21.226Z,1014.07
2018-07-03T07:44:21.188Z,1014.10
2018-07-03T07:45:21.152Z,1014.08
2018-07-03T07:46:21.115Z,1014.12
2018-07-03T07:47:21.079Z,1014.15
2018-07-03T07:48:21.044Z,1014.27
2018-07-03T07:49:21.008Z,1014.33
2018-07-03T07:50:20.974Z,1014.33
2018-07-03T07:51:20.936Z,1014.36
2018-07-03T07:52:20.903Z,1014.46
2018-07-03T07:53:20.865Z,1014.56
2018-07-03T07:54:20.831Z,1014.65
2018-07-03T07:55:20.794Z,1014.72
2018-07-03T07:56:20.793Z,1014.80
2018-07-03T07:57:20.724Z,1014.89
2018-07-03T07:58:20.688Z,1015.00
2018-07-03T07:59:20.653Z,1014.90
2018-07-03T08:00:20.669Z,1014.78
2018-07-03T08:01:20.590Z,1014.71
2018-07-03T08:02:20.548Z,1014.71
2018-07-03T08:03:20.513Z,1014.71
2018-07-03T08:04:20.480Z,1014.71
2018-07-03T08:05:20.445Z,1014.72
2018-07-03T08:06:20.408Z,1014.65
2018-07-03T08:07:20.375Z,1014.64
2018-07-03T08:08:20.341Z,1014.72
2018-07-03T08:09:20.305Z,1014.81
2018-07-03T08:10:20.272Z,1014.89
2018-07-03T08:11:20.238Z,1014.94
2018-07-03T08:12:20.203Z,1014.84
2018-07-03T08:13:20.202Z,1014.79
2018-07-03T08:14:20.138Z,1014.91
2018-07-03T08:15:20.102Z,1014.96
2018-07-03T08:16:20.069Z,1015.24
2018-07-03T08:17:20.043Z,1015.49
2018-07-03T08:18:20.001Z,1015.52
2018-07-03T08:19:19.972Z,1015.40
2018-07-03T08:20:19.936Z,1015.46
2018-07-03T08:21:19.903Z,1015.45
2018-07-03T08:22:19.869Z,1015.32
2018-07-03T08:23:19.838Z,1015.72
2018-07-03T08:24:19.802Z,1016.19
2018-07-03T08:25:19.770Z,1016.07
2018-07-03T08:26:19.737Z,1015.92
2018-07-03T08:27:19.706Z,1016.01
2018-07-03T08:28:19.672Z,1016.13
2018-07-03T08:29:19.641Z,1016.16
2018-07-03T08:30:19.608Z,1016.16
2018-07-03T08:31:19.575Z,1016.13
2018-07-03T08:32:19.569Z,1016.07
2018-07-03T08:33:19.512Z,1016.11
2018-07-03T08:34:19.484Z,1016.51
2018-07-03T08:35:19.449Z,1016.72
2018-07-03T08:36:19.416Z,1016.56
2018-07-03T08:37:19.385Z,1016.47
2018-07-03T08:38:19.353Z,1017.03
2018-07-03T08:39:19.322Z,1017.36
2018-07-03T08:40:19.291Z,1017.05
2018-07-03T08:41:19.264Z,1017.09
2018-07-03T08:42:19.228Z,1016.29
2018-07-03T08:43:19.198Z,1015.55
2018-07-03T08:44:19.167Z,1016.75
2018-07-03T08:45:19.136Z,1019.16
2018-07-03T08:46:19.104Z,1019.12
2018-07-03T08:47:19.074Z,1017.31
2018-07-03T08:48:19.076Z,1015.35
2018-07-03T08:49:19.015Z,1014.14
2018-07-03T08:50:18.983Z,1013.62
2018-07-03T08:51:18.951Z,1013.45
2018-07-03T08:52:18.923Z,1013.32
2018-07-03T08:53:18.944Z,1013.32
2018-07-03T08:54:18.865Z,1013.29
2018-07-03T08:55:18.832Z,1013.22
2018-07-03T08:56:18.803Z,1013.21
2018-07-03T08:57:18.771Z,1013.23
2018-07-03T08:58:18.809Z,1013.18
2018-07-03T08:59:18.714Z,1013.16
2018-07-03T09:00:18.683Z,1013.08
2018-07-03T09:01:18.657Z,1013.10
2018-07-03T09:02:18.624Z,1013.04
2018-07-03T09:03:18.594Z,1012.99
2018-07-03T09:04:18.570Z,1012.99
2018-07-03T09:05:18.535Z,1013.04
2018-07-03T09:06:18.506Z,1013.01
2018-07-03T09:07:18.477Z,1012.99
2018-07-03T09:08:18.448Z,1013.01
2018-07-03T09:09:18.420Z,1012.97
2018-07-03T09:10:18.390Z,1012.96
2018-07-03T09:11:18.361Z,1012.95
2018-07-03T09:12:18.359Z,1012.93
2018-07-03T09:13:18.303Z,1012.88
2018-07-03T09:14:18.274Z,1012.92
2018-07-03T09:15:18.245Z,1012.93
2018-07-03T09:16:18.217Z,1012.91
2018-07-03T09:17:18.189Z,1012.92
2018-07-03T09:18:18.160Z,1012.86
2018-07-03T09:19:18.132Z,1012.81
2018-07-03T09:20:18.102Z,1012.80
2018-07-03T09:21:18.076Z,1012.86
2018-07-03T09:22:18.046Z,1012.83
2018-07-03T09:23:18.017Z,1012.82
2018-07-03T09:24:17.990Z,1012.84
2018-07-03T09:25:17.961Z,1012.77
2018-07-03T09:26:17.931Z,1012.71
2018-07-03T09:27:17.903Z,1012.74
2018-07-03T09:28:17.877Z,1012.74
2018-07-03T09:29:17.849Z,1012.68
2018-07-03T09:30:17.821Z,1012.69
2018-07-03T09:31:17.792Z,1012.72
2018-07-03T09:32:17.764Z,1012.70
2018-07-03T09:33:17.737Z,1012.66
2018-07-03T09:34:17.708Z,1012.62
2018-07-03T09:35:17.680Z,1012.61
2018-07-03T09:36:17.660Z,1012.64
2018-07-03T09:37:17.625Z,1012.66
2018-07-03T09:38:17.598Z,1012.63
2018-07-03T09:39:17.574Z,1012.51
2018-07-03T09:40:17.541Z,1012.54
2018-07-03T09:41:17.514Z,1012.53
2018-07-03T09:42:17.485Z,1012.46
2018-07-03T09:43:17.459Z,1012.41
2018-07-03T09:44:17.431Z,1012.25
2018-07-03T09:45:17.403Z,1012.20
2018-07-03T09:46:17.375Z,1012.22
2018-07-03T09:47:17.348Z,1012.23
2018-07-03T09:48:17.319Z,1012.17
2018-07-03T09:49:17.295Z,1012.17
2018-07-03T09:50:17.262Z,1012.22
2018-07-03T09:51:17.235Z,1012.19
2018-07-03T09:52:17.206Z,1012.18
2018-07-03T09:53:17.180Z,1012.25
2018-07-03T09:54:17.148Z,1012.18
2018-07-03T09:55:17.118Z,1012.16
2018-07-03T09:56:17.089Z,1012.15
2018-07-03T09:57:17.060Z,1012.18
2018-07-03T09:58:17.028Z,1012.23
2018-07-03T09:59:16.997Z,1012.21
2018-07-03T10:00:16.965Z,1012.19
2018-07-03T10:01:16.932Z,1012.20
2018-07-03T10:02:16.901Z,1012.20
2018-07-03T10:03:16.868Z,1012.20
2018-07-03T10:04:16.838Z,1012.18
2018-07-03T10:05:16.802Z,1012.25
2018-07-03T10:06:16.768Z,1012.23
2018-07-03T10:45:26.824Z,1011.93
2018-07-03T10:46:26.779Z,1011.93
2018-07-03T10:47:26.732Z,1011.94
2018-07-03T10:48:26.687Z,1011.98
2018-07-03T10:49:26.649Z,1011.95
2018-07-03T10:50:26.601Z,1011.99
2018-07-03T10:51:26.558Z,1011.93
2018-07-03T10:52:26.517Z,1011.95
2018-07-03T10:53:26.474Z,1011.94
2018-07-03T10:54:26.433Z,1011.91
2018-07-03T10:55:26.392Z,1011.88
2018-07-03T10:56:26.351Z,1011.84
2018-07-03T10:57:26.309Z,1011.86
2018-07-03T10:58:26.268Z,1011.81
2018-07-03T10:59:26.231Z,1011.83
2018-07-03T11:00:26.188Z,1011.79
2018-07-03T11:01:26.147Z,1011.79
2018-07-03T11:02:26.107Z,1011.82
2018-07-03T11:03:26.067Z,1011.85
2018-07-03T11:04:26.028Z,1011.85
2018-07-03T11:05:25.987Z,1011.84
2018-07-03T11:06:25.947Z,1011.84
2018-07-03T11:07:25.908Z,1011.82
2018-07-03T11:08:25.869Z,1011.82
2018-07-03T11:09:25.828Z,1011.80
2018-07-03T11:10:25.788Z,1011.88
2018-07-03T11:11:25.749Z,1011.82
2018-07-03T11:12:25.713Z,1011.82
2018-07-03T11:13:25.670Z,1011.73
2018-07-03T11:14:25.630Z,1011.74
2018-07-03T11:15:25.600Z,1011.74
2018-07-03T11:16:25.552Z,1011.74
2018-07-03T11:17:25.512Z,1011.74
2018-07-03T11:18:25.473Z,1011.76
2018-07-03T11:19:25.434Z,1011.75
2018-07-03T11:20:25.398Z,1011.70
2018-07-03T11:21:25.354Z,1011.74
2018-07-03T11:22:25.321Z,1011.73
2018-07-03T11:23:25.277Z,1011.74
2018-07-03T11:24:25.237Z,1011.69
2018-07-03T11:25:25.196Z,1011.66
2018-07-03T11:26:25.159Z,1011.66
2018-07-03T11:27:25.123Z,1011.68
2018-07-03T11:28:25.080Z,1011.69
2018-07-03T11:29:25.041Z,1011.64
2018-07-03T11:30:25.001Z,1011.65
2018-07-03T11:31:24.963Z,1011.68
2018-07-03T11:32:24.923Z,1011.71
2018-07-03T11:33:24.884Z,1011.69
2018-07-03T11:34:24.845Z,1011.63
2018-07-03T11:35:24.805Z,1011.61
2018-07-03T11:36:24.768Z,1011.60
2018-07-03T11:37:24.727Z,1011.55
2018-07-03T11:38:24.690Z,1011.57
2018-07-03T11:39:24.649Z,1011.48
2018-07-03T11:40:24.610Z,1011.50
2018-07-03T11:41:24.620Z,1011.56
2018-07-03T11:42:24.531Z,1011.57
2018-07-03T11:43:24.492Z,1011.53
2018-07-03T11:44:24.453Z,1011.61
2018-07-03T11:45:24.415Z,1011.61
2018-07-03T11:46:24.374Z,1011.60
2018-07-03T11:47:24.336Z,1011.61
2018-07-03T11:48:24.297Z,1011.54
2018-07-03T11:49:24.307Z,1011.55
2018-07-03T11:50:24.217Z,1011.52
2018-07-03T11:51:24.179Z,1011.49
2018-07-03T11:52:24.140Z,1011.52
2018-07-03T11:53:24.099Z,1011.50
2018-07-03T11:54:24.061Z,1011.53
2018-07-03T11:55:24.023Z,1011.51
2018-07-03T11:56:23.984Z,1011.53
2018-07-03T11:57:23.943Z,1011.52
2018-07-03T11:58:23.904Z,1011.51
2018-07-03T11:59:23.865Z,1011.53
2018-07-03T12:00:23.826Z,1011.48
2018-07-03T12:01:23.806Z,1011.51
2018-07-03T12:02:23.747Z,1011.49
2018-07-03T12:03:23.708Z,1011.46
2018-07-03T12:04:23.671Z,1011.49
2018-07-03T12:05:23.629Z,1011.48
2018-07-03T12:06:23.594Z,1011.52
2018-07-03T12:07:23.552Z,1011.48
2018-07-03T12:08:23.512Z,1011.52
2018-07-03T12:09:23.472Z,1011.48
2018-07-03T12:10:23.433Z,1011.46
2018-07-03T12:11:23.394Z,1011.47
2018-07-03T12:12:23.354Z,1011.42
2018-07-03T12:13:23.315Z,1011.43
2018-07-03T12:14:23.275Z,1011.45
2018-07-03T12:15:23.237Z,1011.42
2018-07-03T12:16:23.197Z,1011.39
2018-07-03T12:17:23.157Z,1011.36
2018-07-03T12:18:23.118Z,1011.36
2018-07-03T12:19:23.079Z,1011.37
2018-07-03T12:20:23.039Z,1011.34
2018-07-03T12:21:23.001Z,1011.34
2018-07-03T12:22:22.960Z,1011.31
2018-07-03T12:23:22.920Z,1011.38
2018-07-03T12:24:22.883Z,1011.33
2018-07-03T12:25:22.842Z,1011.31
2018-07-03T12:26:22.802Z,1011.28
2018-07-03T12:27:22.763Z,1011.27
2018-07-03T12:29:22.684Z,1011.32
2018-07-03T12:30:22.644Z,1011.32
2018-07-03T12:31:22.604Z,1011.28
2018-07-03T12:32:22.566Z,1011.29
2018-07-03T12:33:22.525Z,1011.30
2018-07-03T12:34:22.486Z,1011.27
2018-07-03T12:35:22.447Z,1011.29
2018-07-03T12:36:22.408Z,1011.29
2018-07-03T12:37:22.368Z,1011.25
2018-07-03T12:38:22.327Z,1011.34
2018-07-03T12:39:22.289Z,1011.31
2018-07-03T12:40:22.249Z,1011.27
2018-07-03T12:41:22.209Z,1011.29
2018-07-03T12:42:22.170Z,1011.31
2018-07-03T12:43:22.131Z,1011.32
2018-07-03T12:44:22.091Z,1011.28
2018-07-03T12:45:22.051Z,1011.31
2018-07-03T12:46:22.012Z,1011.30